createdAt,value
2022-08-30T00:00:08.898Z,95170.72
2022-08-30T00:02:36.865Z,95169.06
2022-08-30T00:05:05.230Z,95174.56
2022-08-30T00:07:34.661Z,95176.47
2022-08-30T00:10:02.363Z,95172.09
2022-08-30T00:12:31.710Z,95172.09
2022-08-30T00:14:59.502Z,95161.94
2022-08-30T00:17:27.149Z,95158.66
2022-08-30T00:19:55.983Z,95166.31
2022-08-30T00:22:23.629Z,95158.09
2022-08-30T00:24:52.626Z,95164.13
2022-08-30T00:27:20.334Z,95152.59
2022-08-30T00:29:47.967Z,95152.59
2022-08-30T00:32:16.273Z,95152.34
2022-08-30T00:34:43.904Z,95151.78
2022-08-30T00:37:11.566Z,95150.16
2022-08-30T00:39:39.207Z,95146.59
2022-08-30T00:42:08.816Z,95158.94
2022-08-30T00:44:36.728Z,95155.91
2022-08-30T00:47:04.534Z,95155.38
2022-08-30T00:49:32.572Z,95161.69
2022-08-30T00:52:00.521Z,95155.91
2022-08-30T00:54:28.716Z,95155.38
2022-08-30T00:56:56.599Z,95156.19
2022-08-30T00:59:27.304Z,95147.13
2022-08-30T01:01:55.036Z,95149.91
2022-08-30T01:04:23.431Z,95147.97
2022-08-30T01:06:51.226Z,95146.00
2022-08-30T01:09:18.924Z,95152.91
2022-08-30T01:11:47.267Z,95152.91
2022-08-30T01:14:17.170Z,95145.47
2022-08-30T01:16:47.232Z,95147.13
2022-08-30T01:19:29.252Z,95141.66
2022-08-30T01:22:01.900Z,95140.53
2022-08-30T01:24:31.420Z,95148.22
2022-08-30T01:26:59.493Z,95149.88
2022-08-30T01:29:27.546Z,95158.66
2022-08-30T01:31:55.265Z,95160.28
2022-08-30T01:34:23.155Z,95157.00
2022-08-30T01:36:50.824Z,95144.94
2022-08-30T01:39:19.083Z,95144.94
2022-08-30T01:41:48.337Z,95154.25
2022-08-30T01:44:16.242Z,95149.84
2022-08-30T01:46:46.990Z,95154.53
2022-08-30T01:49:16.906Z,95153.72
2022-08-30T01:51:46.911Z,95157.25
2022-08-30T01:54:14.689Z,95158.34
2022-08-30T01:56:42.357Z,95144.09
2022-08-30T01:59:11.428Z,95149.56
2022-08-30T02:01:40.068Z,95150.66
2022-08-30T02:04:09.196Z,95146.81
2022-08-30T02:06:39.245Z,95139.66
2022-08-30T02:09:06.946Z,95144.06
2022-08-30T02:11:35.140Z,95139.94
2022-08-30T02:14:02.804Z,95141.03
2022-08-30T02:16:31.958Z,95141.56
2022-08-30T02:18:59.843Z,95138.84
2022-08-30T02:21:28.129Z,95140.47
2022-08-30T02:23:56.111Z,95142.66
2022-08-30T02:26:24.178Z,95139.09
2022-08-30T02:28:52.189Z,95133.06
2022-08-30T02:31:20.930Z,95135.53
2022-08-30T02:33:51.295Z,95141.31
2022-08-30T02:36:19.113Z,95134.41
2022-08-30T02:38:47.207Z,95148.13
2022-08-30T02:41:15.166Z,95143.47
2022-08-30T02:43:43.074Z,95153.63
2022-08-30T02:46:10.737Z,95152.81
2022-08-30T02:48:38.470Z,95149.22
2022-08-30T02:51:11.626Z,95160.16
2022-08-30T02:53:40.074Z,95147.84
2022-08-30T02:56:08.122Z,95153.31
2022-08-30T02:58:35.889Z,95154.13
2022-08-30T03:01:03.945Z,95158.81
2022-08-30T03:03:31.683Z,95150.03
2022-08-30T03:05:59.332Z,95158.53
2022-08-30T03:08:28.305Z,95150.84
2022-08-30T03:10:56.890Z,95149.19
2022-08-30T03:13:25.022Z,95148.09
2022-08-30T03:15:52.826Z,95149.19
2022-08-30T03:18:21.906Z,95144.81
2022-08-30T03:20:54.364Z,95140.66
2022-08-30T03:23:23.103Z,95134.66
2022-08-30T03:25:53.446Z,95142.31
2022-08-30T03:28:21.277Z,95131.63
2022-08-30T03:30:48.933Z,95140.38
2022-08-30T03:33:18.471Z,95133.25
2022-08-30T03:35:46.841Z,95134.91
2022-08-30T03:38:14.495Z,95147.53
2022-08-30T03:40:43.574Z,95139.84
2022-08-30T03:43:13.084Z,95141.22
2022-08-30T03:45:41.207Z,95139.31
2022-08-30T03:48:09.011Z,95140.13
2022-08-30T03:50:36.961Z,95135.47
2022-08-30T03:53:04.731Z,95140.41
2022-08-30T03:55:32.425Z,95139.06
2022-08-30T03:58:00.112Z,95142.09
2022-08-30T04:00:29.414Z,95142.63
2022-08-30T04:02:57.108Z,95140.19
2022-08-30T04:05:24.806Z,95136.09
2022-08-30T04:07:52.923Z,95148.13
2022-08-30T04:10:21.670Z,95149.78
2022-08-30T04:12:49.934Z,95143.72
2022-08-30T04:15:18.573Z,95142.13
2022-08-30T04:17:48.230Z,95138.00
2022-08-30T04:20:16.627Z,95142.94
2022-08-30T04:22:44.392Z,95144.88
2022-08-30T04:25:15.530Z,95152.03
2022-08-30T04:27:43.495Z,95157.50
2022-08-30T04:30:12.532Z,95155.31
2022-08-30T04:32:41.294Z,95163.53
2022-08-30T04:35:10.924Z,95166.28
2022-08-30T04:37:38.938Z,95167.41
2022-08-30T04:40:07.998Z,95170.16
2022-08-30T04:42:36.761Z,95172.91
2022-08-30T04:45:06.907Z,95169.31
2022-08-30T04:47:34.774Z,95175.66
2022-08-30T04:50:03.597Z,95171.25
2022-08-30T04:52:32.734Z,95181.97
2022-08-30T04:55:00.874Z,95183.88
2022-08-30T04:57:29.077Z,95188.53
2022-08-30T04:59:57.142Z,95189.66
2022-08-30T05:02:25.111Z,95180.03
2022-08-30T05:05:10.611Z,95192.69
2022-08-30T05:07:43.420Z,95194.88
2022-08-30T05:10:11.729Z,95189.94
2022-08-30T05:12:39.830Z,95188.56
2022-08-30T05:15:08.569Z,95194.06
2022-08-30T05:17:38.104Z,95189.66
2022-08-30T05:20:06.917Z,95194.34
2022-08-30T05:22:37.166Z,95193.50
2022-08-30T05:25:07.275Z,95197.09
2022-08-30T05:27:37.543Z,95200.91
2022-08-30T05:30:06.429Z,95205.31
2022-08-30T05:32:34.147Z,95208.63
2022-08-30T05:35:01.850Z,95205.88
2022-08-30T05:37:29.529Z,95193.81
2022-08-30T05:39:57.584Z,95198.50
2022-08-30T05:42:26.686Z,95200.94
2022-08-30T05:44:55.615Z,95196.53
2022-08-30T05:47:23.415Z,95196.03
2022-08-30T05:49:51.593Z,95194.91
2022-08-30T05:52:19.617Z,95202.59
2022-08-30T05:54:47.683Z,95204.81
2022-08-30T05:57:15.387Z,95202.31
2022-08-30T05:59:44.625Z,95202.31
2022-08-30T06:02:12.385Z,95206.44
2022-08-30T06:04:40.123Z,95200.94
2022-08-30T06:07:12.940Z,95198.75
2022-08-30T06:09:43.171Z,95201.47
2022-08-30T06:12:11.075Z,95198.44
2022-08-30T06:14:39.424Z,95199.78
2022-08-30T06:17:08.412Z,95201.44
2022-08-30T06:19:36.058Z,95206.34
2022-08-30T06:22:04.354Z,95206.31
2022-08-30T06:24:53.999Z,95215.34
2022-08-30T06:27:19.567Z,95212.59
2022-08-30T06:29:47.727Z,95206.16
2022-08-30T06:32:16.766Z,95210.50
2022-08-30T06:34:44.474Z,95207.09
2022-08-30T06:37:12.147Z,95218.88
2022-08-30T06:39:58.066Z,95215.72
2022-08-30T06:42:31.664Z,95215.09
2022-08-30T06:44:59.463Z,95218.25
2022-08-30T06:47:29.154Z,95215.38
2022-08-30T06:49:57.142Z,95215.34
2022-08-30T06:52:25.238Z,95217.13
2022-08-30T06:54:53.683Z,95215.00
2022-08-30T06:57:21.426Z,95210.16
2022-08-30T06:59:49.195Z,95224.63
2022-08-30T07:02:17.041Z,95227.75
2022-08-30T07:04:46.150Z,95218.47
2022-08-30T07:07:13.832Z,95216.81
2022-08-30T07:09:43.345Z,95212.28
2022-08-30T07:12:12.036Z,95208.25
2022-08-30T07:14:40.825Z,95211.25
2022-08-30T07:17:23.396Z,95210.94
2022-08-30T07:19:52.469Z,95213.16
2022-08-30T07:22:20.229Z,95207.88
2022-08-30T07:24:48.273Z,95209.63
2022-08-30T07:27:16.294Z,95208.16
2022-08-30T07:29:44.079Z,95198.84
2022-08-30T07:32:11.811Z,95212.56
2022-08-30T07:34:39.657Z,95207.25
2022-08-30T07:37:08.753Z,95209.19
2022-08-30T07:39:41.727Z,95207.25
2022-08-30T07:42:13.566Z,95209.16
2022-08-30T07:44:41.254Z,95213.94
2022-08-30T07:47:08.996Z,95212.84
2022-08-30T07:49:37.826Z,95213.59
2022-08-30T07:52:05.754Z,95211.31
2022-08-30T07:54:34.968Z,95216.03
2022-08-30T07:57:02.716Z,95214.19
2022-08-30T07:59:33.015Z,95218.00
2022-08-30T08:02:03.441Z,95209.84
2022-08-30T08:04:31.661Z,95207.53
2022-08-30T08:06:59.432Z,95204.84
2022-08-30T08:09:27.281Z,95212.09
2022-08-30T08:11:56.459Z,95214.72
2022-08-30T08:14:24.294Z,95210.94
2022-08-30T08:16:52.249Z,95219.03
2022-08-30T08:19:19.979Z,95219.44
2022-08-30T08:21:50.478Z,95221.75
2022-08-30T08:24:27.963Z,95219.69
2022-08-30T08:26:57.710Z,95222.09
2022-08-30T08:29:26.953Z,95217.63
2022-08-30T08:31:54.880Z,95224.50
2022-08-30T08:34:23.605Z,95226.38
2022-08-30T08:36:51.717Z,95226.03
2022-08-30T08:39:19.522Z,95223.13
2022-08-30T08:41:53.729Z,95216.50
2022-08-30T08:44:34.289Z,95219.91
2022-08-30T08:47:08.119Z,95219.91
2022-08-30T08:49:37.293Z,95220.06
2022-08-30T08:52:23.871Z,95211.50
2022-08-30T08:54:56.272Z,95219.63
2022-08-30T08:57:27.246Z,95212.06
2022-08-30T08:59:56.266Z,95210.75
2022-08-30T09:02:26.658Z,95211.69
2022-08-30T09:04:56.586Z,95208.97
2022-08-30T09:07:26.529Z,95209.88
2022-08-30T09:09:54.499Z,95208.38
2022-08-30T09:12:22.174Z,95205.66
2022-08-30T09:14:54.412Z,95198.97
2022-08-30T09:17:24.923Z,95202.19
2022-08-30T09:20:02.505Z,95200.59
2022-08-30T09:22:34.863Z,95197.78
2022-08-30T09:25:05.643Z,95203.75
2022-08-30T09:27:36.215Z,95200.06
2022-08-30T09:30:14.205Z,95193.47
2022-08-30T09:32:45.884Z,95196.94
2022-08-30T09:35:19.140Z,95189.19
2022-08-30T09:37:50.054Z,95193.81
2022-08-30T09:40:23.708Z,95187.47
2022-08-30T09:43:04.213Z,95193.59
2022-08-30T09:45:36.081Z,95187.81
2022-08-30T09:48:21.797Z,95179.06
2022-08-30T09:50:52.884Z,95179.66
2022-08-30T09:53:26.773Z,95171.34
2022-08-30T09:55:57.178Z,95177.41
2022-08-30T09:58:35.185Z,95176.00
2022-08-30T10:01:12.004Z,95175.78
2022-08-30T10:03:46.236Z,95175.50
2022-08-30T10:06:19.646Z,95175.09
2022-08-30T10:08:57.650Z,95175.28
2022-08-30T10:11:29.491Z,95164.00
2022-08-30T10:14:00.779Z,95159.34
2022-08-30T10:16:35.779Z,95162.19
2022-08-30T10:19:14.760Z,95154.38
2022-08-30T10:21:45.303Z,95156.91
2022-08-30T10:24:21.011Z,95155.97
2022-08-30T10:26:51.929Z,95153.19
2022-08-30T10:29:24.106Z,95150.97
2022-08-30T10:31:55.997Z,95149.81
2022-08-30T10:34:25.561Z,95147.41
2022-08-30T10:36:58.370Z,95136.50
2022-08-30T10:39:30.987Z,95139.13
2022-08-30T10:42:04.114Z,95130.03
2022-08-30T10:44:36.061Z,95131.41
2022-08-30T10:47:10.278Z,95129.19
2022-08-30T10:49:43.244Z,95132.16
2022-08-30T10:52:22.586Z,95130.22
2022-08-30T10:54:52.812Z,95128.19
2022-08-30T10:57:20.962Z,95120.47
2022-08-30T10:59:53.316Z,95115.06
2022-08-30T11:02:47.643Z,95116.91
2022-08-30T11:05:29.871Z,95120.56
2022-08-30T11:08:05.164Z,95120.13
2022-08-30T11:10:47.770Z,95118.19
2022-08-30T11:13:21.971Z,95117.13
2022-08-30T11:16:02.501Z,95122.31
2022-08-30T11:18:31.338Z,95119.97
2022-08-30T11:21:23.172Z,95121.38
2022-08-30T11:24:11.699Z,95124.03
2022-08-30T11:27:06.759Z,95120.16
2022-08-30T11:29:43.213Z,95120.75
2022-08-30T11:32:58.637Z,95122.84
2022-08-30T11:35:46.018Z,95120.41
2022-08-30T11:38:22.663Z,95120.50
2022-08-30T11:40:53.281Z,95122.41
2022-08-30T11:43:53.177Z,95123.28
2022-08-30T11:46:35.212Z,95115.72
2022-08-30T11:49:08.123Z,95117.88
2022-08-30T11:52:27.612Z,95114.53
2022-08-30T11:55:08.234Z,95112.09
2022-08-30T11:57:50.714Z,95109.19
2022-08-30T12:00:30.349Z,95109.88
2022-08-30T12:03:01.279Z,95113.91
2022-08-30T12:05:57.407Z,95106.13
2022-08-30T12:08:45.437Z,95106.94
2022-08-30T12:12:04.023Z,95104.16
2022-08-30T12:14:52.033Z,95102.06
2022-08-30T12:17:43.252Z,95108.50
2022-08-30T12:20:26.009Z,95099.91
2022-08-30T12:22:55.511Z,95098.81
2022-08-30T12:25:32.689Z,95099.72
2022-08-30T12:28:14.962Z,95104.38
2022-08-30T12:30:46.495Z,95105.06
2022-08-30T12:33:16.251Z,95099.53
2022-08-30T12:35:45.438Z,95098.25
2022-08-30T12:38:18.494Z,95089.50
2022-08-30T12:40:51.805Z,95093.38
2022-08-30T12:43:27.817Z,95090.28
2022-08-30T12:46:11.566Z,95079.56
2022-08-30T12:48:41.811Z,95089.13
2022-08-30T12:51:10.990Z,95085.31
2022-08-30T12:53:42.020Z,95074.25
2022-08-30T12:56:11.896Z,95071.84
2022-08-30T12:58:43.854Z,95069.78
2022-08-30T13:01:19.662Z,95064.53
2022-08-30T13:04:02.256Z,95067.78
2022-08-30T13:06:42.150Z,95062.81
2022-08-30T13:09:10.444Z,95059.28
2022-08-30T13:11:38.319Z,95054.31
2022-08-30T13:14:31.465Z,95047.41
2022-08-30T13:17:24.671Z,95058.59
2022-08-30T13:20:05.314Z,95045.19
2022-08-30T13:22:35.115Z,95046.13
2022-08-30T13:25:04.684Z,95048.31
2022-08-30T13:27:36.784Z,95047.19
2022-08-30T13:30:07.933Z,95048.25
2022-08-30T13:32:43.074Z,95049.16
2022-08-30T13:35:11.889Z,95034.75
2022-08-30T13:37:47.434Z,95039.19
2022-08-30T13:40:19.374Z,95037.47
2022-08-30T13:42:47.280Z,95030.88
2022-08-30T13:48:07.206Z,95022.22
2022-08-30T13:50:34.915Z,95033.69
2022-08-30T13:53:02.697Z,95020.38
2022-08-30T13:55:30.435Z,95018.25
2022-08-30T13:57:58.419Z,95022.16
2022-08-30T14:00:27.192Z,95017.78
2022-08-30T14:02:57.486Z,95020.09
2022-08-30T14:11:11.306Z,95014.91
2022-08-30T14:14:14.152Z,95008.44
2022-08-30T14:16:27.556Z,95004.75
2022-08-30T14:18:55.507Z,95005.06
2022-08-30T14:21:25.366Z,94999.47
2022-08-30T14:23:53.137Z,95001.56
2022-08-30T14:26:22.786Z,95006.63
2022-08-30T14:28:51.913Z,95007.28
2022-08-30T14:31:20.286Z,95005.09
2022-08-30T14:33:48.264Z,95001.75
2022-08-30T14:36:16.868Z,95001.41
2022-08-30T14:38:46.008Z,94995.72
2022-08-30T14:41:13.661Z,94987.56
2022-08-30T14:43:41.502Z,94985.94
2022-08-30T14:46:10.153Z,94985.94
2022-08-30T14:48:39.102Z,94982.88
2022-08-30T14:51:13.038Z,94972.41
2022-08-30T14:53:41.335Z,94967.81
2022-08-30T14:56:12.549Z,94967.16
2022-08-30T14:58:40.207Z,94981.44
2022-08-30T15:01:09.706Z,94981.59
2022-08-30T15:03:38.068Z,94968.69
2022-08-30T15:06:06.210Z,94959.53
2022-08-30T15:08:34.586Z,94963.03
2022-08-30T15:11:02.455Z,94960.78
2022-08-30T15:13:31.438Z,94960.69
2022-08-30T15:15:59.160Z,94970.97
2022-08-30T15:18:26.866Z,94964.00
2022-08-30T15:20:54.631Z,94959.47
2022-08-30T15:23:22.860Z,94955.88
2022-08-30T15:25:52.631Z,94946.81
2022-08-30T15:28:20.261Z,94951.13
2022-08-30T15:30:50.146Z,94947.78
2022-08-30T15:33:17.968Z,94944.06
2022-08-30T15:35:45.621Z,94946.66
2022-08-30T15:38:13.326Z,94944.66
2022-08-30T15:40:41.169Z,94944.59
2022-08-30T15:43:08.842Z,94945.28
2022-08-30T15:45:36.758Z,94937.81
2022-08-30T15:48:05.928Z,94949.91
2022-08-30T15:50:33.665Z,94949.47
2022-08-30T15:53:02.250Z,94943.63
2022-08-30T15:55:29.974Z,94936.44
2022-08-30T15:57:57.602Z,94943.28
2022-08-30T16:00:25.314Z,94950.50
2022-08-30T16:02:53.291Z,94942.63
2022-08-30T16:05:23.680Z,94929.25
2022-08-30T16:07:52.334Z,94932.63
2022-08-30T16:10:20.433Z,94937.97
2022-08-30T16:12:48.054Z,94933.31
2022-08-30T16:15:15.949Z,94931.00
2022-08-30T16:17:43.720Z,94926.47
2022-08-30T16:20:12.049Z,94923.69
2022-08-30T16:22:45.864Z,94915.66
2022-08-30T16:25:15.367Z,94924.25
2022-08-30T16:27:44.058Z,94922.59
2022-08-30T16:30:12.978Z,94922.38
2022-08-30T16:32:41.299Z,94920.72
2022-08-30T16:35:10.482Z,94915.50
2022-08-30T16:37:39.276Z,94915.94
2022-08-30T16:40:11.385Z,94926.50
2022-08-30T16:42:39.269Z,94911.59
2022-08-30T16:45:10.788Z,94916.00
2022-08-30T16:47:38.565Z,94919.91
2022-08-30T16:50:07.138Z,94916.69
2022-08-30T16:52:34.897Z,94913.75
2022-08-30T16:55:02.609Z,94914.88
2022-08-30T16:57:32.882Z,94913.94
2022-08-30T17:00:00.539Z,94916.22
2022-08-30T17:02:28.206Z,94921.78
2022-08-30T17:04:55.901Z,94915.28
2022-08-30T17:07:23.539Z,94911.69
2022-08-30T17:09:51.229Z,94919.41
2022-08-30T17:12:19.067Z,94919.81
2022-08-30T17:14:48.073Z,94921.38
2022-08-30T17:17:15.755Z,94910.91
2022-08-30T17:19:44.074Z,94913.53
2022-08-30T17:22:12.869Z,94910.78
2022-08-30T17:24:40.791Z,94912.13
2022-08-30T17:27:08.619Z,94913.50
2022-08-30T17:29:36.261Z,94910.41
2022-08-30T17:32:07.734Z,94911.78
2022-08-30T17:34:36.839Z,94920.97
2022-08-30T17:37:04.931Z,94919.19
2022-08-30T17:39:32.628Z,94927.56
2022-08-30T17:42:00.904Z,94923.81
2022-08-30T17:44:29.647Z,94928.44
2022-08-30T17:46:58.404Z,94942.03
2022-08-30T17:49:29.586Z,94941.03
2022-08-30T17:51:58.012Z,94937.97
2022-08-30T17:54:26.636Z,94939.63
2022-08-30T17:56:55.072Z,94946.50
2022-08-30T17:59:25.343Z,94948.31
2022-08-30T18:01:53.964Z,94953.41
2022-08-30T18:04:24.687Z,94955.47
2022-08-30T18:06:54.320Z,94957.94
2022-08-30T18:09:22.407Z,94961.84
2022-08-30T18:11:50.341Z,94960.06
2022-08-30T18:14:18.816Z,94957.09
2022-08-30T18:16:52.479Z,94974.59
2022-08-30T18:19:22.668Z,94976.38
2022-08-30T18:21:50.275Z,94973.91
2022-08-30T18:24:19.850Z,94972.63
2022-08-30T18:26:47.605Z,94980.63
2022-08-30T18:29:22.484Z,94980.97
2022-08-30T18:31:57.286Z,94978.19
2022-08-30T18:34:24.937Z,94989.09
2022-08-30T18:36:52.732Z,94983.69
2022-08-30T18:39:22.460Z,94998.16
2022-08-30T18:41:50.801Z,94988.44
2022-08-30T18:44:28.390Z,94992.00
2022-08-30T18:46:57.707Z,94984.94
2022-08-30T18:49:32.783Z,94989.28
2022-08-30T18:52:00.874Z,94994.28
2022-08-30T18:54:31.506Z,94983.63
2022-08-30T18:56:59.818Z,94978.81
2022-08-30T18:59:35.490Z,94977.00
2022-08-30T19:02:05.225Z,94976.38
2022-08-30T19:04:35.459Z,94980.91
2022-08-30T19:07:04.665Z,94978.78
2022-08-30T19:09:33.773Z,94994.66
2022-08-30T19:12:01.583Z,94994.28
2022-08-30T19:14:29.298Z,94993.28
2022-08-30T19:16:57.329Z,94988.94
2022-08-30T19:19:25.151Z,94990.31
2022-08-30T19:21:52.764Z,94995.78
2022-08-30T19:24:20.433Z,95002.66
2022-08-30T19:26:50.369Z,94992.09
2022-08-30T19:29:17.977Z,94997.63
2022-08-30T19:31:45.755Z,95000.09
2022-08-30T19:34:13.576Z,94997.63
2022-08-30T19:36:41.472Z,95005.75
2022-08-30T19:39:09.942Z,94996.31
2022-08-30T19:41:38.156Z,95004.00
2022-08-30T19:44:07.663Z,95003.09
2022-08-30T19:46:37.027Z,95008.81
2022-08-30T19:49:07.044Z,95007.28
2022-08-30T19:51:34.655Z,95003.41
2022-08-30T19:54:03.187Z,95004.31
2022-08-30T19:56:30.865Z,95013.84
2022-08-30T19:58:58.530Z,95010.28
2022-08-30T20:01:33.311Z,95012.94
2022-08-30T20:04:02.601Z,95010.06
2022-08-30T20:06:30.920Z,95001.88
2022-08-30T20:09:00.356Z,95001.03
2022-08-30T20:11:28.722Z,95006.16
2022-08-30T20:13:56.822Z,95005.25
2022-08-30T20:16:33.119Z,95006.16
2022-08-30T20:19:08.138Z,95007.56
2022-08-30T20:21:36.356Z,94999.53
2022-08-30T20:24:04.988Z,95001.59
2022-08-30T20:26:37.520Z,95000.63
2022-08-30T20:29:05.533Z,95012.91
2022-08-30T20:31:33.589Z,95008.31
2022-08-30T20:34:01.790Z,95004.81
2022-08-30T20:36:30.801Z,94999.75
2022-08-30T20:38:58.818Z,94992.97
2022-08-30T20:41:28.951Z,94997.84
2022-08-30T20:43:58.268Z,94992.25
2022-08-30T20:46:27.716Z,94991.31
2022-08-30T20:49:01.434Z,94988.59
2022-08-30T20:51:30.594Z,94991.50
2022-08-30T20:53:58.487Z,94991.38
2022-08-30T20:56:27.690Z,94989.94
2022-08-30T20:58:55.380Z,94984.88
2022-08-30T21:01:24.198Z,94987.13
2022-08-30T21:03:51.963Z,94986.06
2022-08-30T21:06:21.670Z,94982.78
2022-08-30T21:08:50.678Z,94976.69
2022-08-30T21:11:18.350Z,94979.44
2022-08-30T21:13:48.268Z,94979.13
2022-08-30T21:16:17.729Z,94976.88
2022-08-30T21:18:49.697Z,94971.56
2022-08-30T21:21:21.290Z,94977.59
2022-08-30T21:23:50.541Z,94974.03
2022-08-30T21:26:19.192Z,94987.03
2022-08-30T21:28:47.757Z,94981.28
2022-08-30T21:31:17.972Z,94983.22
2022-08-30T21:33:45.750Z,94985.25
2022-08-30T21:36:27.359Z,94976.22
2022-08-30T21:39:00.600Z,94986.13
2022-08-30T21:41:29.119Z,94983.38
2022-08-30T21:43:57.746Z,94990.56
2022-08-30T21:46:26.494Z,94982.72
2022-08-30T21:48:54.366Z,94985.78
2022-08-30T21:51:22.486Z,94988.84
2022-08-30T21:53:50.121Z,94984.13
2022-08-30T21:56:21.996Z,94988.84
2022-08-30T21:58:50.604Z,94991.38
2022-08-30T22:01:21.196Z,94994.16
2022-08-30T22:03:48.939Z,95001.84
2022-08-30T22:06:17.019Z,94994.72
2022-08-30T22:08:46.931Z,95005.75
2022-08-30T22:11:21.775Z,95002.44
2022-08-30T22:13:50.986Z,94999.16
2022-08-30T22:16:21.421Z,94993.13
2022-08-30T22:18:49.132Z,94994.03
2022-08-30T22:21:19.749Z,95001.47
2022-08-30T22:23:47.428Z,94998.22
2022-08-30T22:26:16.252Z,94999.81
2022-08-30T22:28:45.388Z,95000.13
2022-08-30T22:31:14.909Z,95001.03
2022-08-30T22:33:43.071Z,94998.41
2022-08-30T22:36:14.544Z,94996.19
2022-08-30T22:38:42.465Z,94998.41
2022-08-30T22:41:11.489Z,95001.16
2022-08-30T22:43:39.346Z,95003.88
2022-08-30T22:46:08.895Z,95006.84
2022-08-30T22:48:36.954Z,95004.91
2022-08-30T22:51:05.291Z,95007.88
2022-08-30T22:53:33.131Z,95004.91
2022-08-30T22:56:01.869Z,95000.28
2022-08-30T22:58:30.716Z,94998.94
2022-08-30T23:00:58.476Z,94999.59
2022-08-30T23:03:29.754Z,94997.56
2022-08-30T23:05:57.431Z,95004.31
2022-08-30T23:08:25.079Z,95007.72
2022-08-30T23:10:52.801Z,95002.44
2022-08-30T23:13:20.587Z,94996.34
2022-08-30T23:15:48.232Z,94995.72
2022-08-30T23:18:15.901Z,94981.53
2022-08-30T23:20:45.234Z,94988.38
2022-08-30T23:23:30.395Z,94973.41
2022-08-30T23:26:18.270Z,94965.59
2022-08-30T23:29:03.666Z,94970.22
2022-08-30T23:31:49.033Z,94966.88
2022-08-30T23:34:34.223Z,94966.28
2022-08-30T23:37:20.904Z,94970.66
2022-08-30T23:40:06.463Z,94964.41
2022-08-30T23:42:51.626Z,94966.03
2022-08-30T23:45:37.086Z,94967.19
2022-08-30T23:48:22.033Z,94966.38
2022-08-30T23:51:07.423Z,94966.88
2022-08-30T23:53:54.115Z,94964.41
2022-08-30T23:56:39.631Z,94963.06
2022-08-30T23:59:25.092Z,94962.75
